Zhong Shan Men — 3FLE6 — position and weather

sailwx.info

Track history (hours):
 
Tides and Currents Weather Stations Pressure Air Temp Water Temp Dewpoint Dewpoint Depression Visibility Wind Speed Wind Dir Waves Ship Positions

Zhong Shan Men

Last reported at 2018-Mar-18 01:12 UTC. Time now 2018-Apr-27 06:55 UTC.
Position N 01°13' E 103°28'.
Warning: this ship's position is 40 days out of date.

Length 189 m; draft 13.1 m.

Type: Cargo ship. MMSI: 351339000.

Date/timePositionNaut miles runAvg speedWind from/ knotsBaromVisibWave heightAir tempDewpointWater temp
2018-Mar-18 01:12N 01°13' E 103°28'312.9
2018-Mar-18 00:59N 01°12' E 103°31'713.7
2018-Mar-18 00:30N 01°11' E 103°37'713.5
2018-Mar-17 23:58N 01°09' E 103°44'613.6
2018-Mar-17 23:31N 01°11' E 103°50'912.8
2018-Mar-17 22:47N 01°15' E 103°58'2 0.9
2018-Mar-17 20:22N 01°17' E 103°59'0 0.0
2018-Mar-17 19:52N 01°17' E 103°59'0 0.0
2018-Mar-17 19:22N 01°17' E 103°59'0 0.0
2018-Mar-17 18:52N 01°17' E 103°59'0 0.0
2018-Mar-17 18:28N 01°17' E 103°59'0 0.0
2018-Mar-17 13:17N 01°17' E 103°59'1 2.6
2018-Mar-17 12:54N 01°16' E 103°58'1 1.8
2018-Mar-17 12:29N 01°16' E 103°58'  
2018-Mar-12 07:24N 22°22' E 117°13'511.6
2018-Mar-12 06:59N 22°27' E 117°15'611.7
2018-Mar-12 06:30N 22°32' E 117°18'5212.1
2018-Mar-12 02:15N 23°18' E 117°43'1212.3
2018-Mar-12 01:18N 23°29' E 117°48'512.1
2018-Mar-12 00:55N 23°32' E 117°52'512.1
2018-Mar-12 00:30N 23°35' E 117°56'612.1
2018-Mar-12 00:00N 23°39' E 118°01'611.9
2018-Mar-11 23:30N 23°43' E 118°06'611.8
2018-Mar-11 23:00N 23°47' E 118°11'611.7
2018-Mar-11 22:30N 23°51' E 118°16'611.6
2018-Mar-11 21:58N 23°55' E 118°21'  
Track history (hours):
 
Tides and Currents Weather Stations Pressure Air Temp Water Temp Dewpoint Dewpoint Depression Visibility Wind Speed Wind Dir Waves Ship Positions

Zhong Shan Men

Last reported at 2018-Mar-18 01:12 UTC. Time now 2018-Apr-27 06:55 UTC.
Position N 01°13' E 103°28'.
Warning: this ship's position is 40 days out of date.

Length 189 m; draft 13.1 m.

Type: Cargo ship. MMSI: 351339000.

Date/timePositionNaut miles runAvg speedWind from/ knotsBaromVisibWave heightAir tempDewpointWater temp
2018-Mar-18 01:12N 01°13' E 103°28'312.9
2018-Mar-18 00:59N 01°12' E 103°31'713.7
2018-Mar-18 00:30N 01°11' E 103°37'713.5
2018-Mar-17 23:58N 01°09' E 103°44'613.6
2018-Mar-17 23:31N 01°11' E 103°50'912.8
2018-Mar-17 22:47N 01°15' E 103°58'2 0.9
2018-Mar-17 20:22N 01°17' E 103°59'0 0.0
2018-Mar-17 19:52N 01°17' E 103°59'0 0.0
2018-Mar-17 19:22N 01°17' E 103°59'0 0.0
2018-Mar-17 18:52N 01°17' E 103°59'0 0.0
2018-Mar-17 18:28N 01°17' E 103°59'0 0.0
2018-Mar-17 13:17N 01°17' E 103°59'1 2.6
2018-Mar-17 12:54N 01°16' E 103°58'1 1.8
2018-Mar-17 12:29N 01°16' E 103°58'  
2018-Mar-12 07:24N 22°22' E 117°13'511.6
2018-Mar-12 06:59N 22°27' E 117°15'611.7
2018-Mar-12 06:30N 22°32' E 117°18'5212.1
2018-Mar-12 02:15N 23°18' E 117°43'1212.3
2018-Mar-12 01:18N 23°29' E 117°48'512.1
2018-Mar-12 00:55N 23°32' E 117°52'512.1
2018-Mar-12 00:30N 23°35' E 117°56'612.1
2018-Mar-12 00:00N 23°39' E 118°01'611.9
2018-Mar-11 23:30N 23°43' E 118°06'611.8
2018-Mar-11 23:00N 23°47' E 118°11'611.7
2018-Mar-11 22:30N 23°51' E 118°16'611.6
2018-Mar-11 21:58N 23°55' E 118°21'  

Dump ship's entire track history